Terminal Aerodrome Forecast
Issued by NWS Atlanta, GA

Home | Current Version | Previous Version | Text Only | Print | Product List | Glossary On
Versions: 1 2 3 4 5 6 7 8 9 10 11 12 13 14 15 16 17 18 19 20 21 22 23
000
FTUS42 KFFC 270233 AAB
TAFCSG
TAF AMD
KCSG 270233Z 2703/2724 24006KT 5SM -SHRA BR OVC025
      TEMPO 2703/2705 5SM -TSRA BR BKN015CB
     FM270600 28007KT P6SM -SHRA OVC015
     FM270900 31010KT P6SM OVC008
     FM271400 33011G21KT P6SM OVC015
     FM271700 33013G23KT P6SM SCT025 BKN050
     FM272100 32012G22KT P6SM BKN070=

USA.gov is the U.S. government's official web portal to all federal, state and local government web resources and services.